Pagrindinis puslapis
METAR-TAF:

METAR-TAF

Oro uostai :

Maljorkos Palma, Ispanija

platuma: 39-33N, ilguma: 002-44E, Aukštis: 4 m

Dabartinis oras

Ataskaita buvo paskelbta 30 minutes, ne 22:30 UTC
Vėjas 4 kt iš Rytų/Šiaurės Rytų
Temperatūra 17°C
Drėgmė 77%
Slėgis 1016 hPa
Matomumas 10 km arba daugiau
nėra debesų žemiau 1500 m ir nėra kamuolinių lietaus debesų

METAR: LEPA 302230Z 06004KT CAVOK 17/13 Q1016 NOSIG

Laikas: 01:00 (23:00 UTC)

Prognozė

Ataskaita buvo paskelbta 6 valandos ir 0 minutes, ne 17:00 UTC
Prognozė galioja nuo 30 metu 18 UTC su 31 metu 18 UTC
Vėjas 10 kt iš Pietų/Pietvakarių
Matomumas 10 km arba daugiau
Mažai debesys ne aukštis 3000 ft
Tapsmas
nuo 30 metu 18 UTC su 30 metu 20 UTC
Vėjas 3 kt iš Šiaurės Rytų
Tikimybė 30%
nuo 31 metu 02 UTC su 31 metu 06 UTC
Matomumas: 2000 m
Rūkas lopais
Tapsmas
nuo 31 metu 08 UTC su 31 metu 10 UTC
Vėjas 10 kt iš Pietų/Pietvakarių

TAF: LEPA 301700Z 3018/3118 20010KT 9999 FEW030 TX27/3112Z TN15/3106Z BECMG 3018/3020 04003KT PROB30 3102/3106 2000 BCFG BECMG 3108/3110 20010KT

Orai ataskaitas ir orų prognozės (METAR, TAF).

turimą stotys yra geltonos ir raudonos taškus žemėlapyje.

Perkelti pele per norėdami pamatyti stoties vardą.

Tada spustelėkite, norėdami matyti oro stebėjimo ir prognozės.

Norėdami pakeisti žemėlapį: spustelėkite ant žalios mygtukų su juodo kryžiaus žemyn,; žalią mygtuką su brūkšneliu, jei norite nutolinti; arba žalių rodyklių gretimoms žemėlapius.


METAR-TAF: